createdAt,value
2018-08-20T00:00:17.968Z,84.47
2018-08-20T00:01:17.946Z,83.86
2018-08-20T00:02:17.951Z,84.67
2018-08-20T00:03:17.944Z,84.53
2018-08-20T00:04:17.916Z,84.67
2018-08-20T00:05:17.897Z,84.57
2018-08-20T00:06:17.894Z,84.67
2018-08-20T00:07:17.897Z,84.57
2018-08-20T00:08:17.869Z,84.06
2018-08-20T00:09:17.863Z,84.57
2018-08-20T00:10:17.886Z,84.67
2018-08-20T00:11:17.838Z,84.77
2018-08-20T00:12:17.833Z,84.57
2018-08-20T00:13:17.816Z,84.17
2018-08-20T00:14:17.812Z,83.76
2018-08-20T00:15:17.792Z,84.37
2018-08-20T00:16:17.802Z,84.06
2018-08-20T00:17:17.796Z,84.57
2018-08-20T00:18:17.759Z,83.76
2018-08-20T00:19:17.747Z,83.76
2018-08-20T00:20:17.736Z,83.86
2018-08-20T00:21:17.725Z,83.86
2018-08-20T00:22:17.771Z,83.76
2018-08-20T00:23:17.702Z,83.66
2018-08-20T00:24:17.683Z,84.37
2018-08-20T00:25:17.679Z,84.17
2018-08-20T00:26:17.667Z,82.95
2018-08-20T00:27:17.653Z,82.75
2018-08-20T00:28:17.706Z,83.96
2018-08-20T00:29:17.634Z,83.66
2018-08-20T00:30:17.624Z,83.46
2018-08-20T00:31:17.611Z,84.27
2018-08-20T00:32:17.604Z,83.66
2018-08-20T00:33:17.596Z,84.06
2018-08-20T00:34:17.613Z,84.17
2018-08-20T00:35:17.560Z,84.06
2018-08-20T00:36:17.557Z,83.86
2018-08-20T00:37:17.542Z,83.76
2018-08-20T00:38:17.536Z,83.76
2018-08-20T00:39:17.549Z,83.66
2018-08-20T00:40:17.586Z,83.76
2018-08-20T00:41:17.496Z,83.76
2018-08-20T00:42:17.488Z,83.86
2018-08-20T00:43:17.479Z,84.31
2018-08-20T00:44:17.483Z,83.46
2018-08-20T00:45:19.323Z,83.86
2018-08-20T00:46:17.453Z,83.66
2018-08-20T00:47:17.429Z,84.17
2018-08-20T00:48:17.421Z,84.17
2018-08-20T00:49:17.414Z,83.60
2018-08-20T00:50:17.434Z,83.96
2018-08-20T00:51:17.386Z,84.11
2018-08-20T00:52:17.398Z,83.19
2018-08-20T00:53:17.359Z,84.11
2018-08-20T00:54:17.352Z,83.50
2018-08-20T00:55:17.351Z,83.60
2018-08-20T00:56:17.344Z,82.69
2018-08-20T00:57:17.322Z,83.19
2018-08-20T00:58:17.319Z,83.19
2018-08-20T00:59:17.296Z,81.57
2018-08-20T01:00:17.289Z,82.99
2018-08-20T01:01:17.294Z,82.59
2018-08-20T01:02:17.263Z,82.69
2018-08-20T01:03:17.251Z,82.49
2018-08-20T01:04:17.250Z,81.68
2018-08-20T01:05:17.229Z,82.49
2018-08-20T01:06:17.218Z,82.28
2018-08-20T01:07:17.219Z,82.28
2018-08-20T01:08:17.196Z,82.08
2018-08-20T01:09:17.179Z,82.39
2018-08-20T01:10:17.189Z,82.49
2018-08-20T01:11:17.160Z,82.28
2018-08-20T01:12:17.161Z,82.18
2018-08-20T01:13:17.132Z,81.98
2018-08-20T01:14:17.122Z,82.49
2018-08-20T01:15:17.136Z,82.22
2018-08-20T01:16:17.122Z,83.13
2018-08-20T01:17:17.089Z,82.83
2018-08-20T01:18:17.084Z,82.22
2018-08-20T01:19:17.072Z,82.42
2018-08-20T01:20:17.102Z,83.23
2018-08-20T01:21:17.050Z,83.23
2018-08-20T01:22:17.055Z,82.83
2018-08-20T01:23:17.026Z,83.03
2018-08-20T01:24:17.021Z,82.56
2018-08-20T01:25:17.008Z,82.76
2018-08-20T01:26:17.004Z,83.27
2018-08-20T01:27:16.977Z,82.97
2018-08-20T01:28:16.990Z,82.93
2018-08-20T01:29:16.959Z,83.17
2018-08-20T01:30:16.973Z,83.03
2018-08-20T01:31:16.964Z,82.93
2018-08-20T01:32:16.925Z,83.37
2018-08-20T01:33:16.916Z,82.46
2018-08-20T01:34:16.942Z,82.26
2018-08-20T01:35:16.896Z,82.46
2018-08-20T01:36:16.879Z,82.56
2018-08-20T01:37:16.881Z,82.26
2018-08-20T01:38:16.854Z,82.16
2018-08-20T01:39:16.845Z,82.06
2018-08-20T01:40:16.858Z,82.26
2018-08-20T01:41:16.825Z,83.37
2018-08-20T01:42:16.873Z,82.50
2018-08-20T01:43:16.798Z,82.60
2018-08-20T01:44:16.791Z,81.79
2018-08-20T01:45:16.782Z,81.90
2018-08-20T01:46:16.802Z,81.76
2018-08-20T01:47:16.755Z,81.79
2018-08-20T01:48:16.756Z,82.60
2018-08-20T01:49:16.727Z,82.30
2018-08-20T01:50:16.718Z,82.30
2018-08-20T01:51:16.714Z,82.30
2018-08-20T01:52:16.732Z,82.20
2018-08-20T01:53:16.708Z,82.30
2018-08-20T01:54:16.685Z,82.20
2018-08-20T01:55:16.668Z,82.20
2018-08-20T01:56:16.651Z,82.14
2018-08-20T01:57:16.644Z,82.60
2018-08-20T01:58:16.652Z,82.24
2018-08-20T01:59:16.639Z,82.44
2018-08-20T02:00:16.610Z,83.15
2018-08-20T02:01:16.595Z,83.45
2018-08-20T02:02:16.590Z,82.44
2018-08-20T02:03:16.577Z,83.25
2018-08-20T02:04:16.613Z,83.15
2018-08-20T02:05:16.550Z,82.75
2018-08-20T02:06:16.539Z,83.25
2018-08-20T02:07:16.530Z,83.35
2018-08-20T02:08:16.523Z,82.54
2018-08-20T02:09:16.516Z,82.38
2018-08-20T02:10:16.539Z,82.48
2018-08-20T02:11:16.485Z,82.68
2018-08-20T02:12:16.477Z,82.48
2018-08-20T02:13:16.461Z,82.64
2018-08-20T02:14:16.454Z,82.48
2018-08-20T02:15:16.462Z,82.54
2018-08-20T02:16:16.451Z,83.49
2018-08-20T02:17:16.412Z,82.17
2018-08-20T02:18:16.407Z,82.38
2018-08-20T02:19:16.391Z,82.68
2018-08-20T02:20:16.388Z,83.09
2018-08-20T02:21:16.410Z,82.38
2018-08-20T02:22:16.398Z,82.68
2018-08-20T02:23:16.359Z,82.38
2018-08-20T02:24:16.340Z,82.89
2018-08-20T02:25:16.338Z,82.17
2018-08-20T02:26:16.326Z,82.58
2018-08-20T02:27:16.318Z,83.23
2018-08-20T02:28:16.313Z,82.42
2018-08-20T02:29:16.285Z,83.23
2018-08-20T02:30:16.271Z,83.12
2018-08-20T02:31:16.260Z,82.62
2018-08-20T02:32:16.271Z,82.72
2018-08-20T02:33:16.246Z,82.62
2018-08-20T02:34:16.258Z,83.23
2018-08-20T02:35:16.207Z,83.03
2018-08-20T02:36:16.210Z,82.31
2018-08-20T02:37:16.213Z,82.31
2018-08-20T02:38:16.188Z,83.23
2018-08-20T02:39:16.180Z,82.72
2018-08-20T02:40:16.185Z,82.66
2018-08-20T02:41:16.150Z,82.62
2018-08-20T02:42:16.150Z,83.33
2018-08-20T02:43:16.128Z,82.25
2018-08-20T02:44:16.119Z,82.66
2018-08-20T02:45:16.107Z,83.17
2018-08-20T02:46:16.128Z,82.66
2018-08-20T02:47:16.095Z,82.52
2018-08-20T02:48:16.077Z,83.17
2018-08-20T02:49:16.067Z,82.86
2018-08-20T02:50:16.067Z,82.35
2018-08-20T02:51:16.033Z,82.45
2018-08-20T02:52:16.066Z,83.57
2018-08-20T02:53:16.059Z,83.37
2018-08-20T02:54:16.001Z,83.67
2018-08-20T02:55:16.000Z,83.26
2018-08-20T02:56:15.986Z,83.26
2018-08-20T02:57:15.983Z,83.26
2018-08-20T02:58:15.958Z,83.17
2018-08-20T02:59:15.977Z,83.47
2018-08-20T03:00:15.932Z,82.25
2018-08-20T03:01:15.925Z,82.70
2018-08-20T03:02:15.922Z,83.00
2018-08-20T03:03:15.913Z,83.51
2018-08-20T03:04:15.891Z,83.10
2018-08-20T03:05:15.904Z,83.31
2018-08-20T03:06:15.869Z,83.00
2018-08-20T03:07:15.867Z,83.20
2018-08-20T03:08:15.846Z,83.20
2018-08-20T03:09:15.835Z,83.10
2018-08-20T03:10:15.818Z,83.31
2018-08-20T03:11:15.839Z,83.31
2018-08-20T03:12:15.822Z,83.31
2018-08-20T03:13:15.796Z,83.81
2018-08-20T03:14:15.778Z,83.81
2018-08-20T03:15:15.770Z,83.91
2018-08-20T03:16:15.767Z,83.31
2018-08-20T03:17:15.766Z,83.31
2018-08-20T03:18:15.772Z,83.54
2018-08-20T03:19:15.723Z,83.34
2018-08-20T03:20:15.718Z,83.34
2018-08-20T03:21:15.703Z,83.61
2018-08-20T03:22:15.694Z,83.34
2018-08-20T03:23:15.700Z,83.45
2018-08-20T03:24:15.684Z,83.31
2018-08-20T03:25:15.657Z,83.45
2018-08-20T03:26:15.635Z,83.85
2018-08-20T03:27:15.633Z,82.94
2018-08-20T03:28:15.619Z,83.24
2018-08-20T03:29:15.655Z,83.45
2018-08-20T03:30:15.601Z,83.54
2018-08-20T03:31:15.594Z,83.34
2018-08-20T03:32:15.575Z,83.45
2018-08-20T03:33:15.565Z,83.34
2018-08-20T03:34:15.568Z,83.65
2018-08-20T03:35:15.579Z,83.54
2018-08-20T03:36:15.533Z,83.24
2018-08-20T03:37:15.528Z,83.24
2018-08-20T03:38:15.513Z,83.14
2018-08-20T03:39:15.510Z,83.79
2018-08-20T03:40:15.487Z,83.08
2018-08-20T03:41:15.488Z,83.48
2018-08-20T03:42:15.461Z,83.59
2018-08-20T03:43:15.452Z,83.59
2018-08-20T03:44:15.464Z,83.38
2018-08-20T03:45:15.433Z,83.48
2018-08-20T03:46:15.424Z,83.28
2018-08-20T03:47:15.449Z,83.59
2018-08-20T03:48:15.396Z,83.62
2018-08-20T03:49:15.387Z,83.32
2018-08-20T03:50:15.403Z,83.18
2018-08-20T03:51:15.362Z,83.28
2018-08-20T03:52:15.353Z,83.93
2018-08-20T03:53:15.364Z,83.89
2018-08-20T03:54:15.321Z,83.42
2018-08-20T03:55:16.297Z,83.62
2018-08-20T03:56:15.344Z,84.23
2018-08-20T03:57:15.297Z,84.44
2018-08-20T03:58:15.280Z,84.34
2018-08-20T03:59:15.287Z,85.05
2018-08-20T04:00:15.268Z,84.03
2018-08-20T04:01:15.255Z,84.34
2018-08-20T04:02:15.259Z,84.23
2018-08-20T04:03:15.233Z,84.54
2018-08-20T04:04:15.225Z,83.83
2018-08-20T04:05:15.232Z,84.23
2018-08-20T04:06:15.199Z,84.54
2018-08-20T04:07:15.203Z,84.13
2018-08-20T04:08:15.171Z,84.23
2018-08-20T04:09:15.161Z,84.44
2018-08-20T04:10:15.146Z,84.34
2018-08-20T04:11:15.158Z,84.34
2018-08-20T04:12:15.164Z,84.13
2018-08-20T04:13:15.116Z,84.34
2018-08-20T04:14:15.107Z,84.13
2018-08-20T04:15:15.094Z,84.44
2018-08-20T04:16:15.089Z,84.23
2018-08-20T04:17:15.093Z,84.23
2018-08-20T04:18:15.096Z,84.23
2018-08-20T04:19:15.057Z,84.64
2018-08-20T04:20:15.047Z,83.93
2018-08-20T04:21:15.030Z,84.23
2018-08-20T04:22:15.022Z,84.23
2018-08-20T04:23:15.033Z,84.54
2018-08-20T04:24:15.228Z,84.30
2018-08-20T04:25:15.002Z,84.44
2018-08-20T04:26:14.976Z,84.13
2018-08-20T04:27:14.969Z,84.30
2018-08-20T04:28:14.958Z,84.40
2018-08-20T04:29:14.968Z,84.44
2018-08-20T04:30:14.954Z,84.30
2018-08-20T04:31:14.913Z,84.44
2018-08-20T04:32:14.910Z,84.44
2018-08-20T04:33:14.901Z,84.80
2018-08-20T04:34:14.883Z,84.34
2018-08-20T04:35:14.900Z,84.20
2018-08-20T04:36:14.883Z,84.44
2018-08-20T04:37:14.854Z,84.20
2018-08-20T04:38:14.843Z,84.91
2018-08-20T04:39:14.828Z,84.91
2018-08-20T04:40:14.841Z,84.20
2018-08-20T04:41:14.812Z,84.40
2018-08-20T04:42:14.902Z,84.20
2018-08-20T04:43:14.789Z,84.20
2018-08-20T04:44:14.778Z,84.20
2018-08-20T04:45:14.765Z,85.01
2018-08-20T04:46:14.775Z,85.01
2018-08-20T04:47:14.739Z,84.70
2018-08-20T04:48:14.759Z,85.01
2018-08-20T04:49:14.722Z,84.40
2018-08-20T04:50:14.838Z,84.40
2018-08-20T04:51:14.956Z,84.60
2018-08-20T04:52:14.707Z,85.01
2018-08-20T04:53:14.673Z,85.01
2018-08-20T04:54:14.688Z,85.21
2018-08-20T04:55:14.651Z,85.07
2018-08-20T04:56:14.634Z,84.87
2018-08-20T04:57:14.643Z,85.07
2018-08-20T04:58:14.615Z,84.56
2018-08-20T04:59:14.610Z,85.27
2018-08-20T05:00:14.617Z,84.05
2018-08-20T05:01:14.584Z,83.85
2018-08-20T05:02:14.587Z,84.05
2018-08-20T05:03:14.560Z,84.16
2018-08-20T05:04:14.547Z,84.97
2018-08-20T05:05:14.544Z,85.07
2018-08-20T05:06:14.556Z,84.97
2018-08-20T05:07:14.529Z,85.07
2018-08-20T05:08:14.526Z,84.87
2018-08-20T05:09:14.491Z,84.83
2018-08-20T05:10:14.484Z,84.42
2018-08-20T05:11:14.470Z,84.72
2018-08-20T05:12:14.474Z,84.16
2018-08-20T05:13:14.452Z,84.22
2018-08-20T05:14:14.451Z,84.52
2018-08-20T05:15:14.437Z,84.12
2018-08-20T05:16:14.416Z,84.22
2018-08-20T05:17:14.411Z,84.42
2018-08-20T05:18:14.424Z,84.32
2018-08-20T05:19:14.393Z,84.18
2018-08-20T05:20:14.372Z,84.42
2018-08-20T05:21:14.367Z,83.67
2018-08-20T05:22:14.346Z,84.89
2018-08-20T05:23:14.341Z,84.58
2018-08-20T05:24:14.379Z,84.08
2018-08-20T05:25:14.308Z,83.87
2018-08-20T05:26:14.319Z,84.64
2018-08-20T05:27:14.294Z,84.24
2018-08-20T05:28:14.275Z,84.85
2018-08-20T05:29:14.324Z,84.95
2018-08-20T05:30:14.294Z,84.34
2018-08-20T05:31:14.250Z,83.94
2018-08-20T05:32:14.238Z,84.14
2018-08-20T05:33:14.222Z,84.44
2018-08-20T05:34:14.207Z,84.81
2018-08-20T05:35:14.228Z,85.31
2018-08-20T05:36:14.205Z,86.53
2018-08-20T05:37:14.188Z,86.53
2018-08-20T05:38:14.168Z,85.62
2018-08-20T05:39:14.160Z,84.97
2018-08-20T05:40:14.140Z,83.80
2018-08-20T05:41:14.139Z,83.45
2018-08-20T05:42:14.134Z,85.07
2018-08-20T05:43:14.107Z,83.96
2018-08-20T05:44:14.098Z,84.83
2018-08-20T05:45:14.093Z,84.93
2018-08-20T05:46:14.105Z,85.03
2018-08-20T05:47:14.070Z,85.24
2018-08-20T05:48:14.073Z,83.92
2018-08-20T05:49:14.043Z,83.72
2018-08-20T05:50:14.030Z,83.17
2018-08-20T05:51:14.019Z,82.50
2018-08-20T05:52:14.026Z,82.56
2018-08-20T05:53:13.999Z,82.87
2018-08-20T05:54:14.007Z,83.17
2018-08-20T05:55:13.980Z,81.96
2018-08-20T05:56:13.967Z,83.54
2018-08-20T05:57:13.984Z,82.53
2018-08-20T05:58:13.941Z,82.12
2018-08-20T05:59:14.012Z,80.60
2018-08-20T06:00:13.930Z,81.48
2018-08-20T06:01:13.911Z,82.08
2018-08-20T06:02:13.895Z,80.46
2018-08-20T06:03:13.899Z,81.34
2018-08-20T06:04:13.878Z,79.52
2018-08-20T06:05:13.864Z,79.41
2018-08-20T06:06:13.872Z,79.38
2018-08-20T06:07:13.895Z,79.79
2018-08-20T06:08:13.880Z,79.48
2018-08-20T06:09:13.818Z,77.97
2018-08-20T06:10:13.810Z,79.04
2018-08-20T06:11:13.802Z,75.74
2018-08-20T06:12:13.806Z,75.81
2018-08-20T06:13:13.772Z,77.22
2018-08-20T06:14:13.788Z,78.09
2018-08-20T06:15:13.779Z,76.98
2018-08-20T06:16:13.736Z,73.75
2018-08-20T06:17:13.734Z,74.83
2018-08-20T06:18:13.722Z,76.61
2018-08-20T06:19:13.710Z,70.56
2018-08-20T06:20:13.706Z,71.47
2018-08-20T06:21:13.686Z,73.41
2018-08-20T06:22:13.683Z,70.83
2018-08-20T06:23:13.658Z,70.32
2018-08-20T06:24:13.670Z,60.94
2018-08-20T06:25:13.673Z,57.42
2018-08-20T06:26:13.631Z,58.54
2018-08-20T06:27:13.617Z,54.57
2018-08-20T06:28:13.607Z,56.70
2018-08-20T06:29:13.592Z,50.98
2018-08-20T06:30:13.597Z,51.52
2018-08-20T06:31:13.593Z,52.86
2018-08-20T06:32:13.556Z,53.01
2018-08-20T06:33:13.550Z,48.60
2018-08-20T06:34:13.538Z,49.66
2018-08-20T06:35:13.528Z,47.46
2018-08-20T06:36:13.537Z,45.53
2018-08-20T06:37:13.922Z,42.76
2018-08-20T06:38:13.503Z,42.44
2018-08-20T06:39:13.481Z,42.14
2018-08-20T06:40:13.478Z,43.12
2018-08-20T06:41:13.461Z,43.51
2018-08-20T06:42:13.476Z,43.31
2018-08-20T06:43:13.435Z,43.49
2018-08-20T06:44:13.427Z,43.07
2018-08-20T06:45:13.418Z,38.23
2018-08-20T06:46:13.415Z,41.39
2018-08-20T06:47:13.436Z,40.50
2018-08-20T06:48:13.403Z,40.31
2018-08-20T06:49:13.383Z,39.99
2018-08-20T06:50:13.367Z,39.79
2018-08-20T06:51:13.352Z,40.98
2018-08-20T06:52:13.346Z,42.07
2018-08-20T06:53:13.363Z,40.56
2018-08-20T06:54:13.336Z,39.95
2018-08-20T06:55:13.313Z,39.78
2018-08-20T06:56:13.304Z,40.17
2018-08-20T06:57:13.297Z,39.95
2018-08-20T06:58:13.283Z,40.05
2018-08-20T06:59:13.288Z,40.45
2018-08-20T07:00:13.264Z,41.73
2018-08-20T07:01:13.273Z,40.82
2018-08-20T07:02:13.255Z,38.56
2018-08-20T07:03:13.236Z,38.47
2018-08-20T07:04:13.230Z,39.76
2018-08-20T07:05:13.214Z,39.95
2018-08-20T07:06:13.214Z,39.78
2018-08-20T07:07:13.184Z,39.46
2018-08-20T07:08:13.174Z,39.28
2018-08-20T07:09:13.184Z,39.58
2018-08-20T07:10:13.159Z,42.64
2018-08-20T07:11:13.139Z,39.65
2018-08-20T07:12:13.129Z,39.79
2018-08-20T07:13:13.120Z,42.46
2018-08-20T07:14:13.114Z,41.55
2018-08-20T07:15:13.136Z,40.76
2018-08-20T07:16:13.084Z,39.28
2018-08-20T07:17:13.069Z,40.07
2018-08-20T07:18:13.066Z,38.71
2018-08-20T07:19:13.052Z,40.21
2018-08-20T07:20:13.045Z,40.42
2018-08-20T07:21:13.088Z,39.83
2018-08-20T07:22:13.018Z,41.53
2018-08-20T07:23:13.013Z,41.31
2018-08-20T07:24:12.999Z,40.34
2018-08-20T07:25:12.993Z,40.56
2018-08-20T07:26:12.976Z,41.97
2018-08-20T07:27:12.997Z,42.96
2018-08-20T07:28:12.955Z,41.18
2018-08-20T07:29:12.964Z,43.26
2018-08-20T07:30:12.939Z,42.84
2018-08-20T07:31:12.926Z,42.54
2018-08-20T07:32:12.932Z,42.74
2018-08-20T07:33:12.932Z,42.14
2018-08-20T07:34:12.887Z,41.46
2018-08-20T07:35:12.889Z,43.02
2018-08-20T07:36:12.869Z,40.37
2018-08-20T07:37:12.887Z,41.25
2018-08-20T07:38:12.844Z,41.87
2018-08-20T07:39:12.865Z,41.36
2018-08-20T07:40:12.829Z,41.57
2018-08-20T07:41:12.813Z,42.57
2018-08-20T07:42:12.809Z,42.36
2018-08-20T07:43:12.834Z,41.41
2018-08-20T07:44:12.787Z,43.12
2018-08-20T07:45:12.811Z,43.42
2018-08-20T07:46:12.768Z,43.84
2018-08-20T07:47:12.749Z,45.20
2018-08-20T07:48:12.752Z,44.51
2018-08-20T07:49:12.741Z,45.79
2018-08-20T07:50:12.724Z,43.71
2018-08-20T07:51:12.738Z,44.41
2018-08-20T07:52:12.700Z,45.40
2018-08-20T07:53:12.688Z,46.00
2018-08-20T07:54:12.683Z,44.01
2018-08-20T07:55:12.672Z,45.03
2018-08-20T07:56:12.661Z,45.74
2018-08-20T07:57:12.661Z,48.74
2018-08-20T07:58:12.637Z,45.27
2018-08-20T07:59:12.647Z,47.45
2018-08-20T08:00:12.612Z,47.05
2018-08-20T08:01:12.613Z,45.86
2018-08-20T08:02:12.594Z,47.05
2018-08-20T08:03:12.615Z,45.45
2018-08-20T08:04:12.570Z,45.23
2018-08-20T08:05:12.762Z,46.12
2018-08-20T08:06:12.553Z,44.83
2018-08-20T08:07:12.546Z,44.71
2018-08-20T08:08:12.527Z,44.81
2018-08-20T08:09:12.546Z,46.19
2018-08-20T08:10:12.509Z,44.78
2018-08-20T08:11:12.500Z,45.30
2018-08-20T08:12:12.478Z,43.91
2018-08-20T08:13:12.469Z,45.00
2018-08-20T08:14:12.510Z,45.68
2018-08-20T08:15:12.483Z,45.18
2018-08-20T08:16:12.473Z,43.70
2018-08-20T08:17:12.430Z,46.07
2018-08-20T08:18:12.470Z,43.89
2018-08-20T08:19:12.401Z,45.38
2018-08-20T08:20:12.385Z,43.89
2018-08-20T08:21:12.392Z,43.74
2018-08-20T08:22:12.398Z,45.12
2018-08-20T08:23:12.360Z,43.76
2018-08-20T08:24:12.346Z,44.83
2018-08-20T08:25:12.362Z,45.03
2018-08-20T08:26:12.323Z,45.23
2018-08-20T08:27:12.317Z,45.23
2018-08-20T08:28:12.300Z,45.64
2018-08-20T08:29:12.288Z,45.84
2018-08-20T08:30:12.290Z,46.98
2018-08-20T08:31:12.260Z,46.28
2018-08-20T08:32:12.292Z,46.28
2018-08-20T08:33:12.237Z,46.70
2018-08-20T08:34:12.234Z,48.89
2018-08-20T08:35:12.225Z,47.40
2018-08-20T08:36:12.224Z,47.99
2018-08-20T08:37:12.201Z,47.52
2018-08-20T08:38:12.295Z,47.25
2018-08-20T08:39:12.183Z,49.93
2018-08-20T08:40:12.165Z,49.43
2018-08-20T08:41:12.165Z,51.03
2018-08-20T08:42:12.145Z,48.91
2018-08-20T08:43:12.158Z,48.11
2018-08-20T08:44:12.137Z,50.63
2018-08-20T08:45:12.109Z,51.12
2018-08-20T08:46:12.103Z,50.60
2018-08-20T08:47:12.090Z,50.38
2018-08-20T08:48:12.082Z,50.88
2018-08-20T08:49:12.132Z,47.60
2018-08-20T08:50:12.064Z,47.89
2018-08-20T08:51:12.047Z,49.78
2018-08-20T08:52:12.037Z,49.88
2018-08-20T08:53:12.024Z,50.58
2018-08-20T08:54:12.019Z,48.91
2018-08-20T08:55:12.058Z,49.31
2018-08-20T08:56:12.014Z,49.01
2018-08-20T08:57:11.980Z,49.29
2018-08-20T08:58:11.972Z,50.58
2018-08-20T08:59:11.955Z,51.67
2018-08-20T09:00:11.950Z,50.56
2018-08-20T09:01:11.953Z,49.07
2018-08-20T09:02:11.945Z,49.44
2018-08-20T09:03:11.921Z,49.54
2018-08-20T09:04:11.917Z,47.85
2018-08-20T09:05:11.899Z,50.01
2018-08-20T09:06:11.925Z,49.61
2018-08-20T09:07:11.878Z,47.73
2018-08-20T09:08:11.873Z,47.83
2018-08-20T09:09:11.856Z,48.32
2018-08-20T09:10:11.836Z,47.63
2018-08-20T09:11:11.836Z,46.95
2018-08-20T09:12:11.824Z,50.73
2018-08-20T09:13:11.803Z,49.32
2018-08-20T09:14:11.810Z,50.60
2018-08-20T09:15:11.785Z,48.74
2018-08-20T09:16:11.771Z,48.94
2018-08-20T09:17:11.790Z,48.77
2018-08-20T09:18:11.745Z,49.88
2018-08-20T09:19:11.735Z,51.67
2018-08-20T09:20:11.751Z,51.75
2018-08-20T09:21:11.711Z,50.83
2018-08-20T09:22:11.698Z,50.73
2018-08-20T09:23:11.703Z,50.90
2018-08-20T09:24:11.674Z,50.31
2018-08-20T09:25:11.665Z,51.10
2018-08-20T09:26:11.681Z,48.80
2018-08-20T09:27:11.647Z,47.92
2018-08-20T09:28:11.662Z,50.43
2018-08-20T09:29:11.627Z,51.20
2018-08-20T09:30:11.615Z,52.39
2018-08-20T09:31:11.596Z,51.97
2018-08-20T09:32:11.634Z,50.88
2018-08-20T09:33:11.577Z,48.82
2018-08-20T09:34:11.585Z,49.51
2018-08-20T09:35:11.558Z,49.11
2018-08-20T09:36:11.541Z,48.94
2018-08-20T09:37:11.528Z,51.23
2018-08-20T09:38:11.551Z,50.90
2018-08-20T09:39:11.509Z,50.51
2018-08-20T09:40:11.517Z,51.10
2018-08-20T09:41:11.486Z,50.31
2018-08-20T09:42:11.473Z,50.51
2018-08-20T09:43:11.470Z,50.98
2018-08-20T09:44:11.519Z,50.88
2018-08-20T09:45:11.448Z,50.88
2018-08-20T09:46:11.441Z,49.79
2018-08-20T09:47:11.415Z,50.58
2018-08-20T09:48:11.408Z,52.04
2018-08-20T09:49:11.392Z,50.85
2018-08-20T09:50:11.504Z,50.46
2018-08-20T09:51:11.381Z,50.46
2018-08-20T09:52:11.363Z,51.45
2018-08-20T09:53:11.371Z,48.75
2018-08-20T09:54:11.347Z,50.43
2018-08-20T09:55:11.361Z,50.83
2018-08-20T09:56:11.344Z,50.34
2018-08-20T09:57:11.313Z,49.32
2018-08-20T09:58:11.300Z,48.05
2018-08-20T09:59:11.340Z,50.60
2018-08-20T10:00:11.290Z,50.60
2018-08-20T10:01:11.285Z,50.21
2018-08-20T10:02:11.273Z,50.18
2018-08-20T10:03:11.250Z,50.29
2018-08-20T10:04:11.249Z,47.41
2018-08-20T10:05:11.228Z,49.10
2018-08-20T10:06:11.213Z,47.71
2018-08-20T10:07:11.220Z,48.97
2018-08-20T10:08:11.196Z,49.57
2018-08-20T10:09:11.215Z,49.74
2018-08-20T10:10:11.169Z,49.07
2018-08-20T10:11:11.165Z,47.49
2018-08-20T10:12:11.164Z,48.08
2018-08-20T10:13:11.151Z,47.66
2018-08-20T10:14:11.131Z,47.19
2018-08-20T10:15:11.134Z,46.70
2018-08-20T10:16:11.125Z,46.80
2018-08-20T10:17:11.126Z,48.92
2018-08-20T10:18:11.083Z,48.23
2018-08-20T10:19:11.079Z,49.05
2018-08-20T10:20:11.075Z,49.74
2018-08-20T10:21:11.058Z,50.81
2018-08-20T10:22:11.080Z,48.43
2018-08-20T10:23:11.042Z,47.14
2018-08-20T10:24:11.028Z,49.22
2018-08-20T10:25:11.017Z,48.53
2018-08-20T10:26:11.000Z,48.63
2018-08-20T10:27:11.011Z,49.22
2018-08-20T10:28:11.079Z,48.30
2018-08-20T10:29:10.996Z,49.19
2018-08-20T10:30:10.957Z,49.00
2018-08-20T10:31:10.950Z,47.41
2018-08-20T10:32:11.001Z,48.82
2018-08-20T10:33:10.944Z,50.68
2018-08-20T10:34:10.920Z,48.40
2018-08-20T10:35:10.919Z,49.99
2018-08-20T10:36:10.899Z,48.70
2018-08-20T10:37:20.723Z,49.49
2018-08-20T10:38:11.009Z,48.82
2018-08-20T10:39:10.899Z,49.59
2018-08-20T10:40:10.847Z,50.48
2018-08-20T10:41:10.854Z,50.56
2018-08-20T10:42:10.867Z,47.71
2018-08-20T10:43:10.870Z,47.63
2018-08-20T10:44:10.845Z,47.74
2018-08-20T10:45:10.809Z,48.25
2018-08-20T10:46:10.800Z,48.27
2018-08-20T10:47:10.816Z,50.09
2018-08-20T10:48:10.800Z,50.88
2018-08-20T10:49:10.803Z,50.18
2018-08-20T10:50:10.843Z,49.59
2018-08-20T10:51:10.753Z,49.39
2018-08-20T10:52:10.781Z,49.49
2018-08-20T10:53:10.723Z,48.77
2018-08-20T10:54:10.809Z,50.76
2018-08-20T10:55:10.704Z,50.65
2018-08-20T10:56:10.755Z,48.67
2018-08-20T10:57:10.686Z,49.46
2018-08-20T10:58:10.656Z,49.57
2018-08-20T10:59:10.675Z,51.25
2018-08-20T11:00:10.668Z,50.73
2018-08-20T11:01:10.669Z,50.60
2018-08-20T11:02:10.708Z,49.79
2018-08-20T11:03:10.631Z,50.76
2018-08-20T11:04:10.616Z,49.77
2018-08-20T11:05:10.619Z,47.78
2018-08-20T11:06:10.708Z,46.88
2018-08-20T11:07:10.572Z,46.70
2018-08-20T11:08:10.568Z,48.28
2018-08-20T11:09:10.548Z,47.09
2018-08-20T11:10:10.611Z,47.31
2018-08-20T11:11:10.569Z,49.69
2018-08-20T11:12:10.554Z,47.91
2018-08-20T11:13:10.504Z,47.52
2018-08-20T11:14:10.509Z,46.92
2018-08-20T11:15:10.489Z,49.69
2018-08-20T11:16:10.499Z,49.37
2018-08-20T11:17:10.469Z,49.57
2018-08-20T11:18:10.455Z,47.69
2018-08-20T11:19:10.460Z,48.08
2018-08-20T11:20:10.470Z,48.88
2018-08-20T11:21:10.477Z,47.37
2018-08-20T11:22:10.406Z,49.32
2018-08-20T11:23:10.387Z,49.32
2018-08-20T11:24:10.439Z,47.03
2018-08-20T11:25:10.395Z,48.49
2018-08-20T11:26:10.370Z,46.22
2018-08-20T11:27:10.386Z,47.10
2018-08-20T11:28:10.351Z,46.59
2018-08-20T11:29:10.356Z,45.50
2018-08-20T11:30:10.356Z,44.24
2018-08-20T11:31:10.313Z,46.41
2018-08-20T11:32:10.291Z,47.89
2018-08-20T11:33:10.291Z,47.20
2018-08-20T11:34:10.290Z,45.54
2018-08-20T11:35:10.273Z,45.96
2018-08-20T11:36:10.262Z,46.85
2018-08-20T11:37:10.273Z,50.71
2018-08-20T11:38:10.904Z,49.10
2018-08-20T11:39:10.240Z,49.30
2018-08-20T11:40:10.264Z,47.15
2018-08-20T11:41:10.233Z,47.22
2018-08-20T11:42:10.251Z,46.04
2018-08-20T11:43:10.246Z,47.54
2018-08-20T11:44:10.175Z,47.72
2018-08-20T11:45:10.162Z,47.62
2018-08-20T11:46:10.176Z,48.16
2018-08-20T11:47:10.122Z,46.29
2018-08-20T11:48:10.236Z,43.84
2018-08-20T11:49:10.226Z,45.45
2018-08-20T11:50:10.126Z,45.39
2018-08-20T11:51:10.133Z,46.62
2018-08-20T11:52:10.072Z,47.24
2018-08-20T11:53:10.086Z,49.71
2018-08-20T11:54:10.090Z,47.53
2018-08-20T11:55:10.072Z,48.65
2018-08-20T11:56:10.064Z,49.71
2018-08-20T11:57:10.051Z,47.75
2018-08-20T11:58:10.068Z,48.77
2018-08-20T11:59:10.102Z,50.43
2018-08-20T12:00:10.009Z,50.31
2018-08-20T12:01:10.011Z,48.40
2018-08-20T12:02:09.973Z,47.39
2018-08-20T12:03:09.990Z,49.66
2018-08-20T12:04:10.002Z,49.84
2018-08-20T12:05:09.946Z,47.07
2018-08-20T12:06:09.993Z,48.65
2018-08-20T12:07:09.947Z,49.05
2018-08-20T12:08:09.902Z,48.65
2018-08-20T12:09:09.927Z,47.77
2018-08-20T12:10:09.894Z,48.48
2018-08-20T12:11:09.915Z,48.70
2018-08-20T12:12:09.915Z,49.71
2018-08-20T12:13:10.000Z,48.21
2018-08-20T12:14:09.855Z,46.89
2018-08-20T12:15:09.829Z,47.69
2018-08-20T12:16:09.874Z,49.05
2018-08-20T12:17:09.808Z,49.15
2018-08-20T12:18:09.794Z,45.76
2018-08-20T12:19:09.797Z,49.52
2018-08-20T12:20:09.768Z,48.19
2018-08-20T12:21:09.759Z,49.45
2018-08-20T12:22:09.770Z,45.30
2018-08-20T12:23:09.768Z,44.67
2018-08-20T12:24:09.753Z,46.04
2018-08-20T12:25:09.709Z,45.14
2018-08-20T12:26:09.707Z,44.82
2018-08-20T12:27:09.695Z,43.44
2018-08-20T12:28:09.723Z,42.47
2018-08-20T12:29:09.679Z,44.35
2018-08-20T12:30:09.688Z,43.37
2018-08-20T12:31:09.652Z,41.81
2018-08-20T12:32:09.645Z,46.37
2018-08-20T12:33:09.651Z,45.08
2018-08-20T12:34:09.669Z,43.43
2018-08-20T12:35:09.612Z,44.46
2018-08-20T12:36:09.623Z,45.25
2018-08-20T12:37:09.593Z,47.72
2018-08-20T12:38:09.587Z,47.22
2018-08-20T12:39:09.564Z,47.13
2018-08-20T12:40:09.641Z,48.19
2018-08-20T12:41:09.542Z,45.52
2018-08-20T12:42:09.558Z,45.60
2018-08-20T12:43:09.542Z,44.79
2018-08-20T12:44:09.518Z,45.36
2018-08-20T12:45:09.506Z,47.13
2018-08-20T12:46:09.493Z,44.94
2018-08-20T12:47:09.478Z,42.65
2018-08-20T12:48:09.507Z,45.06
2018-08-20T12:49:09.460Z,45.36
2018-08-20T12:50:09.451Z,44.74
2018-08-20T12:51:09.444Z,43.76
2018-08-20T12:52:09.426Z,46.15